Time;durP1;ratioP1;P1;durP2;ratioP2;P2;SDS_P1;SDS_P2;PMS_P1;PMS_P2;Temp;Humidity;BMP_temperature;BMP_pressure;BME280_temperature;BME280_humidity;BME280_pressure;Samples;Min_cycle;Max_cycle;Signal;HPM_P1;HPM_P2
2022/09/30 02:48:56;;;;;;;4.93;3.13;;;9.40;99.90;;;;;;4992456;23;93575;-85
2022/09/30 02:51:48;;;;;;;5.32;2.72;;;9.30;99.90;;;;;;4889958;28;92395;-78
2022/09/30 02:54:20;;;;;;;7.75;3.40;;;9.40;99.90;;;;;;4922587;28;90482;-78
2022/09/30 02:56:58;;;;;;;4.93;2.83;;;9.40;99.90;;;;;;4913838;28;93442;-80
2022/09/30 02:59:25;;;;;;;6.13;3.45;;;9.50;99.90;;;;;;4904501;28;91971;-78
2022/09/30 03:01:50;;;;;;;5.38;3.10;;;9.60;99.90;;;;;;4904909;28;93100;-78
2022/09/30 03:04:25;;;;;;;8.77;3.83;;;9.50;99.90;;;;;;4899036;28;91340;-79
2022/09/30 03:06:51;;;;;;;5.72;2.97;;;9.50;99.90;;;;;;4901219;28;91994;-79
2022/09/30 03:09:17;;;;;;;7.97;3.97;;;9.40;99.90;;;;;;4909154;28;91904;-79
2022/09/30 03:11:46;;;;;;;8.70;4.60;;;9.40;99.90;;;;;;4919328;28;91374;-82
2022/09/30 03:14:59;;;;;;;10.88;4.40;;;9.30;99.90;;;;;;4921818;28;91188;-78
2022/09/30 03:18:01;;;;;;;7.03;4.18;;;9.30;99.90;;;;;;4843451;29;92227;-78
2022/09/30 03:20:51;;;;;;;8.13;3.65;;;9.30;99.90;;;;;;4843419;29;92267;-77
2022/09/30 03:23:29;;;;;;;8.15;4.15;;;9.20;99.90;;;;;;4911622;28;91513;-77
2022/09/30 03:26:09;;;;;;;8.98;3.75;;;9.10;99.90;;;;;;4922240;28;91751;-76
2022/09/30 03:29:02;;;;;;;5.18;2.92;;;9.10;99.90;;;;;;4920786;28;93198;-79
2022/09/30 03:31:49;;;;;;;5.50;2.65;;;9.10;99.90;;;;;;4910672;28;92877;-78
2022/09/30 03:34:32;;;;;;;5.00;2.72;;;9.10;99.90;;;;;;4906705;28;91345;-78
2022/09/30 03:37:29;;;;;;;4.13;2.25;;;9.20;99.90;;;;;;4923702;28;91331;-77
2022/09/30 03:40:11;;;;;;;5.00;2.70;;;9.10;99.90;;;;;;4886579;28;91467;-77
2022/09/30 03:42:44;;;;;;;4.72;3.03;;;9.10;99.90;;;;;;4920882;28;91326;-80
2022/09/30 03:45:38;;;;;;;4.28;2.00;;;9.10;99.90;;;;;;4902868;28;91200;-78
2022/09/30 03:48:07;;;;;;;3.70;1.67;;;9.10;99.90;;;;;;4898719;28;91129;-79
2022/09/30 03:50:35;;;;;;;3.42;1.90;;;9.20;99.90;;;;;;4886990;28;92243;-79
2022/09/30 03:53:03;;;;;;;2.75;1.52;;;9.30;99.90;;;;;;4920937;28;91987;-81
2022/09/30 03:55:32;;;;;;;3.78;1.90;;;9.40;99.90;;;;;;4921579;28;93038;-79
2022/09/30 03:57:58;;;;;;;6.18;1.90;;;9.50;99.90;;;;;;4905125;28;91952;-80
2022/09/30 04:00:23;;;;;;;3.58;1.45;;;9.50;99.90;;;;;;4893002;28;93269;-83
2022/09/30 04:02:49;;;;;;;3.78;1.90;;;9.50;99.90;;;;;;4894472;28;91888;-80
2022/09/30 04:05:15;;;;;;;4.70;1.58;;;9.60;99.90;;;;;;4911008;28;91555;-82
2022/09/30 04:07:41;;;;;;;4.82;2.40;;;9.40;99.90;;;;;;4912501;28;91639;-80
2022/09/30 04:10:07;;;;;;;4.32;2.20;;;9.40;99.90;;;;;;4914076;28;92360;-81
2022/09/30 04:12:32;;;;;;;3.38;1.98;;;9.50;99.90;;;;;;4909396;28;91366;-81
2022/09/30 04:14:58;;;;;;;4.85;1.75;;;9.50;99.90;;;;;;4902225;28;91686;-79
2022/09/30 04:17:24;;;;;;;3.13;1.60;;;9.60;99.90;;;;;;4902197;28;91999;-81
2022/09/30 04:19:49;;;;;;;3.13;1.67;;;9.70;99.90;;;;;;4901208;28;93327;-80
2022/09/30 04:22:15;;;;;;;4.05;1.52;;;9.70;99.90;;;;;;4902687;28;92838;-80
2022/09/30 04:24:42;;;;;;;3.38;1.52;;;9.70;99.90;;;;;;4901416;28;92016;-80
2022/09/30 04:27:08;;;;;;;3.67;1.35;;;9.80;99.90;;;;;;4909210;28;91297;-80
2022/09/30 04:29:33;;;;;;;4.38;1.73;;;9.80;99.90;;;;;;4920908;28;92386;-78
2022/09/30 04:31:59;;;;;;;3.15;1.42;;;9.70;99.90;;;;;;4900020;28;92008;-78
2022/09/30 04:34:25;;;;;;;2.97;1.58;;;9.70;99.90;;;;;;4908383;28;91867;-89
2022/09/30 04:36:51;;;;;;;3.75;1.50;;;9.60;99.90;;;;;;4920362;28;92989;-81
2022/09/30 04:39:16;;;;;;;3.03;1.50;;;9.60;99.90;;;;;;4921023;28;91477;-78
2022/09/30 04:41:42;;;;;;;2.92;1.48;;;9.70;99.90;;;;;;4917261;28;91250;-78
2022/09/30 04:44:08;;;;;;;4.18;1.65;;;9.70;99.90;;;;;;4909421;28;92120;-79
2022/09/30 04:46:35;;;;;;;3.08;1.50;;;9.70;99.90;;;;;;4900094;28;91749;-79
2022/09/30 04:49:02;;;;;;;2.88;1.58;;;9.70;99.90;;;;;;4919552;28;92072;-82
2022/09/30 04:51:28;;;;;;;3.50;1.42;;;9.60;99.90;;;;;;4909693;28;91969;-83
2022/09/30 04:53:54;;;;;;;3.67;1.60;;;9.40;99.90;;;;;;4901353;28;91595;-81
2022/09/30 04:56:21;;;;;;;2.80;1.50;;;9.40;99.90;;;;;;4929200;28;91246;-82
2022/09/30 04:58:47;;;;;;;3.55;1.70;;;9.40;99.90;;;;;;4917129;28;92320;-80
2022/09/30 05:01:17;;;;;;;6.32;1.40;;;9.50;99.90;;;;;;4923929;28;91725;-79
2022/09/30 05:03:42;;;;;;;3.75;1.48;;;9.60;99.90;;;;;;4917883;28;91670;-82
2022/09/30 05:06:09;;;;;;;4.18;1.40;;;9.60;99.90;;;;;;4918081;28;91536;-83
2022/09/30 05:08:35;;;;;;;4.05;1.77;;;9.60;99.90;;;;;;4910637;28;93264;-83
2022/09/30 05:11:04;;;;;;;3.97;1.77;;;9.50;99.90;;;;;;4908508;28;92674;-82
2022/09/30 05:13:36;;;;;;;3.83;1.63;;;9.50;99.90;;;;;;4912780;28;92100;-83
2022/09/30 05:16:03;;;;;;;2.35;1.20;;;9.50;99.90;;;;;;4910923;28;91834;-83
2022/09/30 05:18:29;;;;;;;1.98;1.00;;;9.60;99.90;;;;;;4914886;28;92504;-82
2022/09/30 05:20:56;;;;;;;2.83;1.17;;;9.70;99.90;;;;;;4920711;28;91516;-83
2022/09/30 05:23:24;;;;;;;2.85;1.00;;;9.70;99.90;;;;;;4925919;28;91905;-83
2022/09/30 05:25:50;;;;;;;3.00;1.38;;;9.80;99.90;;;;;;4915672;28;91264;-83
2022/09/30 05:28:16;;;;;;;2.95;1.42;;;9.80;99.90;;;;;;4907051;28;93526;-82
2022/09/30 05:30:44;;;;;;;2.95;1.17;;;9.80;99.90;;;;;;4908664;28;92012;-83
2022/09/30 05:33:11;;;;;;;2.47;1.40;;;9.80;99.90;;;;;;4925754;28;93541;-83
2022/09/30 05:35:41;;;;;;;3.28;1.30;;;9.90;99.90;;;;;;4923876;28;91889;-83
2022/09/30 05:38:08;;;;;;;2.55;1.30;;;9.90;99.90;;;;;;4919241;28;91723;-83
2022/09/30 05:40:36;;;;;;;4.00;1.48;;;9.90;99.90;;;;;;4920557;28;92221;-83
2022/09/30 05:43:02;;;;;;;2.60;1.00;;;9.90;99.90;;;;;;4936580;28;92095;-82
2022/09/30 05:45:27;;;;;;;2.75;1.48;;;9.90;99.90;;;;;;4937412;28;91755;-80
2022/09/30 05:47:54;;;;;;;3.05;1.15;;;9.80;99.90;;;;;;4894782;28;91512;-81
2022/09/30 05:50:21;;;;;;;4.53;1.38;;;9.80;99.90;;;;;;4908012;28;92107;-79
2022/09/30 05:52:47;;;;;;;2.70;1.10;;;9.80;99.90;;;;;;4904028;28;91196;-79
2022/09/30 05:55:12;;;;;;;4.20;1.75;;;9.80;99.90;;;;;;4903872;28;91196;-79
2022/09/30 05:57:38;;;;;;;3.42;1.58;;;9.80;99.90;;;;;;4903050;28;93186;-80
2022/09/30 06:00:05;;;;;;;3.97;1.70;;;9.80;99.90;;;;;;4902582;28;92097;-82
2022/09/30 06:02:32;;;;;;;3.45;1.60;;;9.90;99.90;;;;;;4903305;28;92115;-79
2022/09/30 06:04:57;;;;;;;2.88;1.63;;;10.00;99.90;;;;;;4902866;28;91889;-80
2022/09/30 06:07:23;;;;;;;3.30;1.65;;;9.90;99.90;;;;;;4903588;28;92402;-80
2022/09/30 06:09:49;;;;;;;3.40;1.73;;;9.90;99.90;;;;;;4911627;28;92083;-84
2022/09/30 06:12:15;;;;;;;3.50;1.67;;;9.90;99.90;;;;;;4909565;28;91642;-84
2022/09/30 06:14:41;;;;;;;6.03;1.88;;;9.90;99.90;;;;;;4903525;28;90724;-83
2022/09/30 06:17:07;;;;;;;4.45;2.28;;;10.00;99.90;;;;;;4903075;28;92422;-84
2022/09/30 06:19:33;;;;;;;3.92;2.15;;;9.90;99.90;;;;;;4884026;28;93336;-86
2022/09/30 06:21:59;;;;;;;2.97;1.52;;;10.00;99.90;;;;;;4888558;28;92869;-82
2022/09/30 06:24:24;;;;;;;3.95;2.00;;;10.00;99.90;;;;;;4902223;28;91233;-79
2022/09/30 06:26:50;;;;;;;3.67;1.50;;;9.90;99.90;;;;;;4893195;28;91593;-79
2022/09/30 06:29:16;;;;;;;2.67;1.20;;;9.90;99.90;;;;;;4899785;28;92467;-78
2022/09/30 06:31:41;;;;;;;2.85;1.15;;;10.10;99.90;;;;;;4896444;28;91797;-78
2022/09/30 06:34:07;;;;;;;3.25;1.48;;;10.20;99.90;;;;;;4898223;28;91443;-81
2022/09/30 06:36:33;;;;;;;4.75;2.45;;;10.30;99.90;;;;;;4900563;28;92551;-78
2022/09/30 06:39:00;;;;;;;4.38;1.70;;;10.20;99.90;;;;;;4901522;28;91938;-84
2022/09/30 06:41:26;;;;;;;2.65;1.13;;;9.90;99.90;;;;;;4891862;28;91759;-82
2022/09/30 06:43:53;;;;;;;4.10;1.02;;;10.00;99.90;;;;;;4888904;28;91530;-82
2022/09/30 06:46:22;;;;;;;4.05;1.05;;;10.20;99.90;;;;;;4889607;28;93056;-82
2022/09/30 06:48:51;;;;;;;3.80;2.17;;;10.30;99.90;;;;;;4891527;28;92171;-83
2022/09/30 06:51:17;;;;;;;4.43;1.00;;;10.30;99.90;;;;;;4899661;28;91237;-83
2022/09/30 06:53:43;;;;;;;3.97;0.98;;;10.40;99.90;;;;;;4919523;28;91717;-82
2022/09/30 06:56:09;;;;;;;2.25;0.90;;;10.40;99.90;;;;;;4907829;28;91685;-83
2022/09/30 06:58:34;;;;;;;3.00;1.10;;;10.40;99.90;;;;;;4903816;28;92184;-82
2022/09/30 07:01:05;;;;;;;9.13;1.20;;;10.50;99.90;;;;;;4901883;28;91929;-82
2022/09/30 07:03:34;;;;;;;4.45;1.20;;;10.40;99.90;;;;;;4892265;28;90826;-81
2022/09/30 07:06:03;;;;;;;3.05;0.80;;;10.50;99.90;;;;;;4891374;28;92268;-82
2022/09/30 07:08:33;;;;;;;2.40;1.23;;;10.60;99.90;;;;;;4894080;28;91771;-83
2022/09/30 07:11:00;;;;;;;3.20;1.50;;;10.70;99.90;;;;;;4881964;28;93074;-81
2022/09/30 07:13:26;;;;;;;4.40;2.17;;;10.90;99.90;;;;;;4891833;28;92023;-82
2022/09/30 07:15:53;;;;;;;3.85;1.58;;;11.00;99.90;;;;;;4893775;28;92534;-82
2022/09/30 07:18:23;;;;;;;4.18;1.42;;;11.00;99.90;;;;;;4890149;28;91941;-83
2022/09/30 07:20:53;;;;;;;3.78;1.30;;;11.10;99.90;;;;;;4889493;28;91903;-83
2022/09/30 07:23:20;;;;;;;2.70;1.63;;;11.10;99.90;;;;;;4888000;28;91398;-83
2022/09/30 07:25:57;;;;;;;5.13;1.48;;;11.10;99.90;;;;;;4890409;28;91716;-82
2022/09/30 07:28:30;;;;;;;2.72;1.30;;;11.10;99.90;;;;;;4884975;28;92470;-83
2022/09/30 07:30:58;;;;;;;2.60;1.40;;;11.20;99.90;;;;;;4893169;28;91393;-82
2022/09/30 07:33:27;;;;;;;3.08;1.20;;;11.30;99.90;;;;;;4887828;28;91609;-81
2022/09/30 07:35:55;;;;;;;6.40;1.50;;;11.30;99.90;;;;;;4892979;28;93138;-81
2022/09/30 07:38:23;;;;;;;5.55;1.33;;;11.50;99.90;;;;;;4895741;28;93797;-81
2022/09/30 07:40:57;;;;;;;7.20;1.63;;;11.50;99.90;;;;;;4893557;28;92217;-80
2022/09/30 07:43:26;;;;;;;3.63;1.50;;;11.60;99.90;;;;;;4891391;28;92080;-83
2022/09/30 07:45:54;;;;;;;2.88;1.50;;;11.60;99.90;;;;;;4893212;28;91584;-82
2022/09/30 07:51:04;;;;;;;3.00;1.23;;;11.60;99.90;;;;;;4892279;28;92553;-78
2022/09/30 07:53:30;;;;;;;3.65;1.25;;;11.70;99.90;;;;;;4893020;28;91023;-80
2022/09/30 07:55:55;;;;;;;4.25;1.95;;;11.60;99.90;;;;;;4891816;28;92496;-80
2022/09/30 07:58:21;;;;;;;3.88;1.60;;;11.60;99.90;;;;;;4884567;28;91908;-81
2022/09/30 08:00:50;;;;;;;6.45;1.58;;;11.70;99.90;;;;;;4887392;28;92290;-79
2022/09/30 08:03:16;;;;;;;4.18;1.60;;;11.80;99.90;;;;;;4889408;28;91958;-80
2022/09/30 08:05:47;;;;;;;7.65;1.80;;;11.90;99.90;;;;;;4888669;28;92120;-82
2022/09/30 08:08:14;;;;;;;2.75;1.60;;;11.80;99.90;;;;;;4894650;28;92184;-81
2022/09/30 08:10:40;;;;;;;3.67;1.45;;;11.60;99.90;;;;;;4885854;28;91366;-81
2022/09/30 08:13:06;;;;;;;4.18;1.60;;;11.70;99.90;;;;;;4895076;28;91852;-80
2022/09/30 08:15:32;;;;;;;2.70;1.20;;;11.80;99.90;;;;;;4890367;28;91601;-81
2022/09/30 08:17:57;;;;;;;4.82;1.25;;;12.00;99.90;;;;;;4895932;28;92798;-81
2022/09/30 08:20:23;;;;;;;4.03;1.30;;;12.10;99.90;;;;;;4892504;28;91589;-82
2022/09/30 08:22:58;;;;;;;3.83;1.70;;;12.20;99.90;;;;;;4888179;28;92158;-79
2022/09/30 08:25:26;;;;;;;3.97;1.80;;;12.30;99.90;;;;;;4883904;28;93380;-80
2022/09/30 08:27:52;;;;;;;5.68;2.38;;;12.50;99.90;;;;;;4885148;28;92985;-80
2022/09/30 08:30:17;;;;;;;3.88;1.88;;;12.50;99.90;;;;;;4884545;28;91561;-80
2022/09/30 08:32:43;;;;;;;5.18;2.03;;;12.60;99.90;;;;;;4891090;28;91975;-79
2022/09/30 08:35:09;;;;;;;5.68;1.55;;;12.70;99.90;;;;;;4892304;28;92223;-79
2022/09/30 08:37:34;;;;;;;4.05;2.10;;;12.80;99.90;;;;;;4887982;28;92178;-81
2022/09/30 08:40:01;;;;;;;4.25;1.77;;;12.60;99.90;;;;;;4886339;28;91721;-80
2022/09/30 08:42:54;;;;;;;6.65;2.45;;;12.70;99.90;;;;;;4888744;28;91230;-80
2022/09/30 08:45:29;;;;;;;4.45;1.80;;;12.80;99.90;;;;;;4889378;28;91886;-80
2022/09/30 08:47:57;;;;;;;4.45;1.95;;;12.90;99.90;;;;;;4883211;28;92023;-81
2022/09/30 08:51:00;;;;;;;4.57;1.85;;;13.00;99.90;;;;;;4884743;28;92990;-80
2022/09/30 08:53:31;;;;;;;7.00;2.10;;;13.00;99.90;;;;;;4869520;28;91479;-81
2022/09/30 08:56:01;;;;;;;5.75;2.30;;;13.10;99.90;;;;;;4889157;28;92299;-80
2022/09/30 08:58:35;;;;;;;4.50;2.20;;;13.30;99.90;;;;;;4891758;28;92965;-79
2022/09/30 09:01:30;;;;;;;4.38;2.45;;;13.20;99.90;;;;;;4899302;28;91977;-80
2022/09/30 09:03:58;;;;;;;4.70;2.38;;;13.30;99.90;;;;;;4896703;28;91966;-82
2022/09/30 09:06:26;;;;;;;4.97;2.78;;;13.30;99.90;;;;;;4896269;28;92458;-81
2022/09/30 09:08:58;;;;;;;6.00;2.72;;;13.50;99.90;;;;;;4891462;28;94649;-81
2022/09/30 09:11:58;;;;;;;7.93;2.67;;;13.60;99.50;;;;;;4893615;28;91621;-81
2022/09/30 09:14:52;;;;;;;8.10;2.60;;;13.70;98.70;;;;;;4891505;28;91225;-81
2022/09/30 09:17:54;;;;;;;4.68;2.40;;;13.70;98.20;;;;;;4908375;28;94591;-81
2022/09/30 09:20:23;;;;;;;6.03;2.50;;;13.60;99.50;;;;;;4910315;28;93401;-80
2022/09/30 09:22:50;;;;;;;5.78;2.72;;;13.70;99.90;;;;;;4910364;28;91257;-81
2022/09/30 09:25:24;;;;;;;6.28;2.85;;;13.80;99.20;;;;;;4922936;28;91486;-81
2022/09/30 09:27:55;;;;;;;10.00;2.95;;;13.90;98.80;;;;;;4912181;28;91581;-80
2022/09/30 09:30:24;;;;;;;7.70;2.95;;;13.50;99.00;;;;;;4924153;28;91941;-81
2022/09/30 09:32:56;;;;;;;5.85;3.10;;;12.80;99.90;;;;;;4929213;28;91106;-81
2022/09/30 09:35:44;;;;;;;5.55;3.05;;;12.80;99.90;;;;;;4929254;28;90530;-82
2022/09/30 09:38:34;;;;;;;5.15;2.85;;;13.00;99.90;;;;;;4921802;28;91607;-81
2022/09/30 09:41:06;;;;;;;5.25;3.08;;;13.30;99.90;;;;;;4910806;28;91910;-81
2022/09/30 09:43:47;;;;;;;5.93;2.90;;;13.50;99.40;;;;;;4895790;28;92304;-82
2022/09/30 09:46:23;;;;;;;5.57;3.53;;;13.70;99.90;;;;;;4897891;28;91885;-81
2022/09/30 09:49:19;;;;;;;5.82;2.15;;;13.80;98.30;;;;;;4916256;28;93529;-81
2022/09/30 09:51:52;;;;;;;6.25;2.97;;;13.90;98.20;;;;;;4917231;28;92115;-81
2022/09/30 09:54:21;;;;;;;8.93;2.90;;;13.90;97.20;;;;;;4912660;28;91890;-82
2022/09/30 09:56:46;;;;;;;8.27;3.40;;;13.90;97.50;;;;;;4914959;28;91484;-81
2022/09/30 09:59:15;;;;;;;7.20;3.42;;;13.60;96.50;;;;;;4911213;28;93613;-81
2022/09/30 10:01:52;;;;;;;5.55;2.90;;;13.10;98.50;;;;;;4912701;28;92802;-81
2022/09/30 10:04:25;;;;;;;6.47;3.00;;;13.20;99.80;;;;;;4912843;28;91797;-82
2022/09/30 10:07:00;;;;;;;4.80;3.13;;;13.40;98.80;;;;;;4910501;28;92141;-82
2022/09/30 10:09:37;;;;;;;5.65;2.90;;;13.40;98.90;;;;;;4904554;28;92804;-82
2022/09/30 10:12:05;;;;;;;5.18;3.30;;;13.40;99.60;;;;;;4909240;28;94080;-81
2022/09/30 10:14:46;;;;;;;8.15;4.57;;;13.40;99.10;;;;;;4908687;28;91454;-81
2022/09/30 10:17:25;;;;;;;6.07;3.30;;;13.20;99.90;;;;;;4908069;28;91474;-81
2022/09/30 10:19:56;;;;;;;8.40;4.75;;;13.20;99.60;;;;;;4912117;28;92359;-82
2022/09/30 10:22:29;;;;;;;55.42;21.75;;;13.20;99.90;;;;;;4908853;28;92132;-82
2022/09/30 10:25:13;;;;;;;9.93;5.35;;;13.20;99.90;;;;;;4906456;28;91257;-82
2022/09/30 10:27:50;;;;;;;5.18;3.05;;;13.40;99.90;;;;;;4912675;28;90624;-82
2022/09/30 10:30:56;;;;;;;5.18;3.25;;;13.60;99.60;;;;;;4912189;28;92861;-81
2022/09/30 10:33:28;;;;;;;5.63;3.63;;;13.70;99.50;;;;;;4838150;29;91951;-81
2022/09/30 10:35:55;;;;;;;8.25;3.30;;;13.70;98.40;;;;;;4898536;28;92392;-81
2022/09/30 10:38:24;;;;;;;5.72;2.30;;;13.80;97.80;;;;;;4910830;28;91971;-82
2022/09/30 10:40:50;;;;;;;4.15;2.40;;;14.00;96.60;;;;;;4913414;28;93436;-82
2022/09/30 10:43:42;;;;;;;4.90;2.83;;;14.10;96.30;;;;;;4916102;28;91955;-82
2022/09/30 10:46:08;;;;;;;5.15;2.97;;;14.20;97.40;;;;;;4914358;28;92045;-84
2022/09/30 10:48:36;;;;;;;6.40;2.65;;;14.40;96.40;;;;;;4914751;28;91989;-82
2022/09/30 10:51:03;;;;;;;6.20;2.72;;;14.50;95.80;;;;;;4920791;28;91662;-83
2022/09/30 10:53:32;;;;;;;4.43;3.08;;;14.70;95.10;;;;;;4919764;28;91939;-81
2022/09/30 10:55:59;;;;;;;4.53;2.60;;;14.70;94.90;;;;;;4919482;28;92086;-81
2022/09/30 10:58:47;;;;;;;4.60;2.90;;;14.60;94.70;;;;;;4935030;28;91318;-80
2022/09/30 11:01:25;;;;;;;2.97;1.63;;;14.70;94.80;;;;;;4916536;28;92515;-80
2022/09/30 11:04:12;;;;;;;4.47;2.78;;;14.80;94.20;;;;;;4917519;28;92332;-80
2022/09/30 11:06:39;;;;;;;3.72;2.33;;;14.90;94.80;;;;;;4923522;28;92002;-81
2022/09/30 11:09:21;;;;;;;4.07;2.30;;;15.10;94.30;;;;;;4923788;28;92835;-80
2022/09/30 11:11:56;;;;;;;4.18;2.75;;;15.20;93.90;;;;;;4914477;28;92249;-82
2022/09/30 11:14:38;;;;;;;7.18;2.80;;;15.10;93.40;;;;;;4918525;28;91780;-80
2022/09/30 11:17:28;;;;;;;10.63;6.88;;;15.10;92.80;;;;;;4920042;28;91368;-81
2022/09/30 11:20:28;;;;;;;4.75;2.72;;;14.80;93.30;;;;;;4931617;28;90521;-80
2022/09/30 11:23:15;;;;;;;4.72;2.85;;;14.30;93.50;;;;;;4910569;28;92252;-81
2022/09/30 11:26:25;;;;;;;4.35;2.55;;;14.10;95.30;;;;;;4923402;28;91899;-80
2022/09/30 11:29:11;;;;;;;2.75;1.63;;;13.90;95.80;;;;;;4918051;28;92503;-80
2022/09/30 11:31:53;;;;;;;5.13;2.22;;;13.50;97.00;;;;;;4859239;28;92371;-82
2022/09/30 11:34:31;;;;;;;;;;;13.40;98.20;;;;;;4908211;28;92801;-82
2022/09/30 11:37:20;;;;;;;4.05;2.40;;;13.30;98.30;;;;;;4908328;28;92116;-81
2022/09/30 11:39:48;;;;;;;4.53;2.20;;;13.30;99.40;;;;;;4908614;28;91776;-82
2022/09/30 11:42:41;;;;;;;4.93;2.42;;;13.50;99.10;;;;;;4917821;28;91819;-82
2022/09/30 11:45:15;;;;;;;3.50;2.13;;;13.60;97.60;;;;;;4901855;28;92732;-81
2022/09/30 11:48:07;;;;;;;3.80;2.20;;;13.60;98.60;;;;;;4894418;28;92053;-82
2022/09/30 11:50:47;;;;;;;3.88;2.10;;;13.70;98.30;;;;;;4889331;28;91781;-82
2022/09/30 11:53:18;;;;;;;5.28;2.22;;;13.90;97.80;;;;;;4897107;28;92108;-80
2022/09/30 11:55:47;;;;;;;4.13;2.20;;;14.20;97.00;;;;;;4897255;28;94021;-80
2022/09/30 11:58:18;;;;;;;4.30;2.40;;;14.30;97.40;;;;;;4900711;28;92742;-81
2022/09/30 12:00:50;;;;;;;7.72;1.83;;;14.40;96.50;;;;;;4895041;28;91971;-81
2022/09/30 12:03:35;;;;;;;4.80;2.17;;;14.30;96.50;;;;;;4892256;28;92319;-80
2022/09/30 12:06:07;;;;;;;4.18;2.05;;;14.20;96.70;;;;;;4893337;28;92222;-81
2022/09/30 12:08:41;;;;;;;3.90;2.40;;;14.20;95.90;;;;;;4893422;28;92061;-81
2022/09/30 12:11:15;;;;;;;3.40;1.90;;;14.10;96.10;;;;;;4892157;28;91911;-81
2022/09/30 12:13:53;;;;;;;3.35;1.83;;;14.20;97.10;;;;;;4891454;28;91106;-79
2022/09/30 12:16:23;;;;;;;2.95;1.70;;;14.30;96.60;;;;;;4892872;28;92124;-87
2022/09/30 12:18:55;;;;;;;3.10;1.63;;;14.10;95.40;;;;;;4896930;28;91967;-79
2022/09/30 12:21:40;;;;;;;6.05;2.05;;;14.10;95.80;;;;;;4896075;28;93008;-81
2022/09/30 12:24:18;;;;;;;5.47;2.17;;;13.90;97.70;;;;;;4889050;28;92307;-82
2022/09/30 12:26:46;;;;;;;5.10;2.15;;;14.30;96.90;;;;;;4888757;28;92467;-82
2022/09/30 12:32:14;;;;;;;3.78;1.65;;;14.40;95.90;;;;;;4898047;28;91676;-82
2022/09/30 12:35:00;;;;;;;3.65;2.03;;;14.60;95.40;;;;;;4888159;28;91901;-82
2022/09/30 12:37:44;;;;;;;3.85;2.20;;;14.60;94.80;;;;;;4891483;28;92304;-82
2022/09/30 12:40:37;;;;;;;4.45;2.20;;;14.50;95.40;;;;;;4892167;28;91426;-81
2022/09/30 12:43:19;;;;;;;3.40;2.05;;;14.30;96.00;;;;;;4893172;28;91561;-82
2022/09/30 12:46:06;;;;;;;3.08;1.80;;;14.20;96.20;;;;;;4891676;28;93713;-83
2022/09/30 12:48:47;;;;;;;3.17;1.73;;;14.10;96.90;;;;;;4912219;28;92562;-82
2022/09/30 12:51:30;;;;;;;4.28;2.33;;;14.20;96.70;;;;;;4913241;28;92873;-82
2022/09/30 12:54:05;;;;;;;;;;;14.10;97.20;;;;;;4918753;28;91752;-82
2022/09/30 12:56:33;;;;;;;3.25;2.22;;;14.00;97.70;;;;;;4914243;28;91341;-81
2022/09/30 12:58:59;;;;;;;3.47;2.03;;;14.10;97.50;;;;;;4914148;28;92176;-83
2022/09/30 13:01:29;;;;;;;3.80;1.80;;;14.20;96.60;;;;;;4918127;28;92229;-80
2022/09/30 13:04:00;;;;;;;2.38;1.55;;;14.30;95.50;;;;;;4904414;28;92010;-80
2022/09/30 13:06:45;;;;;;;2.65;1.80;;;14.40;95.60;;;;;;4909786;28;91087;-83
2022/09/30 13:09:57;;;;;;;2.90;1.65;;;14.60;95.60;;;;;;4912964;28;92761;-83
2022/09/30 13:12:42;;;;;;;3.55;2.03;;;14.50;96.50;;;;;;4884004;28;92644;-82
2022/09/30 13:15:29;;;;;;;2.80;1.63;;;14.70;94.90;;;;;;4915911;28;92898;-79
2022/09/30 13:18:25;;;;;;;3.78;1.98;;;14.70;94.80;;;;;;4912006;28;91421;-82
2022/09/30 13:21:09;;;;;;;4.10;2.00;;;14.70;94.20;;;;;;4904764;28;92164;-80
2022/09/30 13:23:40;;;;;;;2.67;1.83;;;14.70;93.80;;;;;;4910340;28;91469;-81
2022/09/30 13:26:27;;;;;;;4.82;2.42;;;14.80;93.70;;;;;;4922191;28;91349;-81
2022/09/30 13:29:15;;;;;;;3.00;1.90;;;14.80;94.10;;;;;;4920223;28;91811;-80
2022/09/30 13:31:49;;;;;;;5.82;1.92;;;14.80;94.00;;;;;;4913677;28;91754;-80
2022/09/30 13:34:29;;;;;;;3.35;1.67;;;14.80;94.50;;;;;;4910061;28;91425;-82
2022/09/30 13:37:00;;;;;;;3.03;2.25;;;14.70;93.80;;;;;;4912949;28;91754;-83
2022/09/30 13:39:47;;;;;;;4.72;1.73;;;14.80;93.30;;;;;;4909011;28;92120;-82
2022/09/30 13:42:19;;;;;;;3.40;1.75;;;14.60;93.90;;;;;;4913275;28;96226;-83
2022/09/30 13:45:06;;;;;;;3.08;1.95;;;14.70;93.50;;;;;;4920483;28;92337;-85
2022/09/30 13:47:42;;;;;;;3.40;1.80;;;14.80;93.20;;;;;;4933477;28;91386;-81
2022/09/30 13:50:26;;;;;;;3.35;1.90;;;15.00;92.80;;;;;;4924468;28;91247;-80
2022/09/30 13:53:14;;;;;;;3.58;2.05;;;15.20;92.60;;;;;;4912801;28;92516;-83
2022/09/30 13:55:46;;;;;;;3.15;1.70;;;15.30;91.30;;;;;;4922478;28;92107;-81
2022/09/30 13:58:59;;;;;;;3.10;2.00;;;15.40;91.20;;;;;;4926591;28;91536;-82
2022/09/30 14:01:52;;;;;;;3.67;2.33;;;15.50;91.20;;;;;;4919413;28;90590;-82
2022/09/30 14:04:26;;;;;;;4.65;2.33;;;15.30;91.90;;;;;;4919408;28;94304;-81
2022/09/30 14:06:55;;;;;;;2.83;1.92;;;15.30;92.30;;;;;;4919081;28;92018;-82
2022/09/30 14:09:43;;;;;;;4.20;2.65;;;15.40;91.10;;;;;;4924523;28;92790;-80
2022/09/30 14:12:30;;;;;;;4.05;2.17;;;14.90;90.70;;;;;;4906279;28;91604;-82
2022/09/30 14:15:30;;;;;;;4.43;2.53;;;14.30;93.60;;;;;;4905402;28;93328;-81
2022/09/30 14:18:26;;;;;;;4.53;2.85;;;14.30;93.30;;;;;;4916567;28;92104;-83
2022/09/30 14:21:08;;;;;;;5.18;2.35;;;13.90;93.70;;;;;;4911396;28;91961;-82
2022/09/30 14:23:35;;;;;;;5.47;2.20;;;14.40;94.00;;;;;;4912671;28;92251;-82
2022/09/30 14:26:18;;;;;;;4.88;2.65;;;14.80;92.90;;;;;;4921036;28;91556;-83
2022/09/30 14:29:11;;;;;;;4.00;2.25;;;15.10;92.00;;;;;;4912041;28;92451;-80
2022/09/30 14:31:47;;;;;;;4.00;2.05;;;15.10;91.30;;;;;;4911677;28;91943;-81
2022/09/30 14:34:15;;;;;;;3.00;1.50;;;15.20;91.60;;;;;;4907086;28;91921;-81
2022/09/30 14:36:42;;;;;;;3.55;2.35;;;15.30;90.50;;;;;;4900807;28;92821;-81
2022/09/30 14:39:15;;;;;;;4.40;2.03;;;15.40;91.00;;;;;;4911416;28;92585;-81
2022/09/30 14:41:52;;;;;;;4.60;2.40;;;15.50;90.40;;;;;;4902834;28;92031;-81
2022/09/30 14:44:18;;;;;;;4.95;2.20;;;15.50;90.50;;;;;;4903395;28;91438;-81
2022/09/30 14:46:47;;;;;;;2.92;1.85;;;15.80;87.50;;;;;;4904881;28;92570;-80
2022/09/30 14:49:17;;;;;;;3.90;2.20;;;15.70;88.80;;;;;;4905784;28;91756;-80
2022/09/30 14:51:47;;;;;;;5.82;2.33;;;15.70;88.50;;;;;;4900928;28;91241;-81
2022/09/30 14:54:22;;;;;;;4.55;2.05;;;15.50;90.50;;;;;;4904896;28;90787;-81
2022/09/30 14:56:49;;;;;;;3.00;1.83;;;15.20;91.00;;;;;;4905260;28;91765;-80
2022/09/30 14:59:18;;;;;;;5.55;2.05;;;14.90;91.70;;;;;;4907692;28;92011;-81
2022/09/30 15:01:47;;;;;;;4.35;1.98;;;14.60;92.80;;;;;;4902883;28;92340;-81
2022/09/30 15:04:20;;;;;;;4.13;2.53;;;14.90;92.80;;;;;;4901880;28;91986;-82
2022/09/30 15:06:49;;;;;;;4.07;1.58;;;15.10;93.00;;;;;;4902722;28;92341;-80
2022/09/30 15:09:36;;;;;;;2.53;1.70;;;15.20;92.10;;;;;;4899881;28;92362;-81
2022/09/30 15:12:19;;;;;;;3.42;1.90;;;15.30;92.60;;;;;;4902388;28;91546;-80
2022/09/30 15:14:53;;;;;;;4.82;1.80;;;15.50;90.90;;;;;;4901112;28;91876;-82
2022/09/30 15:17:20;;;;;;;3.70;1.80;;;15.50;91.30;;;;;;4906719;28;92371;-83
2022/09/30 15:19:49;;;;;;;2.97;2.00;;;15.60;90.40;;;;;;4907556;28;91224;-83
2022/09/30 15:22:15;;;;;;;4.10;2.10;;;15.60;90.50;;;;;;4906505;28;92150;-83
2022/09/30 15:24:43;;;;;;;3.05;1.65;;;15.30;90.40;;;;;;4907834;28;91494;-81
2022/09/30 15:27:30;;;;;;;4.35;2.15;;;15.00;91.20;;;;;;4902387;28;92991;-79
2022/09/30 15:30:20;;;;;;;3.20;2.10;;;14.60;92.10;;;;;;4906132;28;92113;-81
2022/09/30 15:32:49;;;;;;;3.42;1.80;;;14.40;92.60;;;;;;4902028;28;91586;-79
2022/09/30 15:35:20;;;;;;;3.65;1.90;;;14.30;93.00;;;;;;4907741;28;91805;-81
2022/09/30 15:37:47;;;;;;;2.60;1.60;;;14.40;92.60;;;;;;4904233;28;92314;-84
2022/09/30 15:43:05;;;;;;;3.50;2.05;;;14.60;92.40;;;;;;4905156;28;91679;-82
2022/09/30 15:45:44;;;;;;;3.85;2.00;;;14.70;92.50;;;;;;4904103;28;90738;-80
2022/09/30 15:48:25;;;;;;;5.93;2.65;;;14.60;92.00;;;;;;4893439;28;91823;-79
2022/09/30 15:50:54;;;;;;;8.48;2.38;;;14.40;92.70;;;;;;4887427;28;91794;-79
2022/09/30 15:53:25;;;;;;;5.53;2.80;;;14.20;93.00;;;;;;4884404;28;92784;-78
2022/09/30 15:56:15;;;;;;;7.80;3.03;;;14.20;92.60;;;;;;4885223;28;91813;-78
2022/09/30 15:58:59;;;;;;;4.55;2.42;;;14.30;92.80;;;;;;4888307;28;91651;-82
2022/09/30 16:01:31;;;;;;;5.85;2.70;;;14.10;92.90;;;;;;4888390;28;91963;-81
2022/09/30 16:04:14;;;;;;;4.95;2.53;;;14.10;93.20;;;;;;4884957;28;92423;-79
2022/09/30 16:06:54;;;;;;;5.03;2.13;;;14.10;92.80;;;;;;4890767;28;91994;-77
2022/09/30 16:09:30;;;;;;;3.25;2.00;;;13.90;93.20;;;;;;4890099;28;91768;-79
2022/09/30 16:12:02;;;;;;;3.53;1.60;;;13.90;93.60;;;;;;4891071;28;91911;-79
2022/09/30 16:14:38;;;;;;;3.63;1.75;;;13.70;93.80;;;;;;4901434;28;91783;-79
2022/09/30 16:17:05;;;;;;;3.60;2.10;;;13.60;94.30;;;;;;4886721;28;93292;-79
2022/09/30 16:19:31;;;;;;;4.63;1.85;;;13.60;94.40;;;;;;4887367;28;93488;-79
2022/09/30 16:21:57;;;;;;;6.03;2.75;;;13.70;94.50;;;;;;4882919;28;92894;-79